Time;durP1;ratioP1;P1;durP2;ratioP2;P2;SDS_P1;SDS_P2;PMS_P1;PMS_P2;Temp;Humidity;BMP_temperature;BMP_pressure;BME280_temperature;BME280_humidity;BME280_pressure;Samples;Min_cycle;Max_cycle;Signal;HPM_P1;HPM_P2
2022/01/21 00:01:12;;;;;;;9.83;3.70;;;;;;;-0.10;100.00;100094.13;5004038;28;20188;-60
2022/01/21 00:03:40;;;;;;;9.63;3.33;;;;;;;-0.13;100.00;100083.94;4990837;28;20213;-60
2022/01/21 00:06:07;;;;;;;12.43;4.07;;;;;;;-0.12;100.00;100090.75;4995330;28;20217;-61
2022/01/21 00:08:34;;;;;;;17.83;4.33;;;;;;;-0.12;100.00;100090.75;4999780;28;20611;-60
2022/01/21 00:11:03;;;;;;;12.60;3.73;;;;;;;-0.12;100.00;100083.06;5000520;28;20193;-60
2022/01/21 00:13:39;;;;;;;16.03;3.73;;;;;;;-0.10;100.00;100092.38;4999943;28;20212;-60
2022/01/21 00:16:08;;;;;;;11.67;4.63;;;;;;;-0.09;100.00;100096.63;4999822;28;20541;-60
2022/01/21 00:18:38;;;;;;;13.17;4.37;;;;;;;-0.06;100.00;100096.53;4999932;28;20189;-61
2022/01/21 00:32:08;;;;;;;11.97;4.20;;;;;;;-0.10;100.00;100078.72;4999276;28;20361;-61
2022/01/21 00:34:36;;;;;;;10.27;3.50;;;;;;;-0.07;100.00;100091.47;4999302;28;20227;-60
2022/01/21 00:37:03;;;;;;;10.37;3.90;;;;;;;-0.14;100.00;100088.22;5000893;28;20592;-59
2022/01/21 00:39:33;;;;;;;12.73;3.40;;;;;;;-0.20;100.00;100084.13;4998951;28;20573;-60
2022/01/21 00:42:09;;;;;;;7.67;3.40;;;;;;;-0.19;100.00;100084.97;5011083;28;20189;-60
2022/01/21 00:44:37;;;;;;;11.20;3.53;;;;;;;-0.23;100.00;100088.50;5010232;28;20207;-60
2022/01/21 00:47:05;;;;;;;12.47;4.13;;;;;;;-0.19;100.00;100090.09;4996234;28;20196;-61
2022/01/21 00:49:32;;;;;;;13.20;3.57;;;;;;;-0.27;100.00;100090.34;4998618;28;20190;-60
2022/01/21 00:52:00;;;;;;;9.87;3.53;;;;;;;-0.20;100.00;100090.97;5001289;28;20271;-61
2022/01/21 00:54:27;;;;;;;12.30;3.67;;;;;;;-0.20;100.00;100083.28;4996455;28;20220;-61
2022/01/21 00:56:53;;;;;;;9.60;3.57;;;;;;;-0.20;100.00;100089.25;4998640;28;20191;-59
2022/01/21 00:59:21;;;;;;;10.33;3.50;;;;;;;-0.12;100.00;100091.59;5009059;28;20564;-59
2022/01/21 01:01:48;;;;;;;9.47;3.37;;;;;;;-0.16;100.00;100090.00;5004931;28;20720;-59
2022/01/21 01:04:15;;;;;;;10.07;3.53;;;;;;;-0.20;100.00;100088.41;4999338;28;20230;-59
2022/01/21 01:06:42;;;;;;;14.60;3.57;;;;;;;-0.17;100.00;100093.44;4996885;28;20216;-59
2022/01/21 01:09:09;;;;;;;10.20;3.20;;;;;;;-0.18;100.00;100100.31;4998301;28;20633;-59
2022/01/21 01:11:49;;;;;;;9.33;3.73;;;;;;;-0.19;100.00;100103.78;5001313;28;20216;-59
2022/01/21 01:19:57;;;;;;;10.60;3.60;;;;;;;-0.17;100.00;100099.44;4994358;28;20212;-59
2022/01/21 01:22:31;;;;;;;13.10;3.47;;;;;;;-0.20;100.00;100096.09;4992439;28;20203;-59
2022/01/21 01:27:44;;;;;;;14.13;3.00;;;;;;;-0.21;100.00;100105.56;4996869;28;20185;-59
2022/01/21 01:30:14;;;;;;;9.60;3.17;;;;;;;-0.23;100.00;100109.88;4998117;28;20263;-59
2022/01/21 01:32:43;;;;;;;8.27;2.60;;;;;;;-0.27;100.00;100117.69;4997655;28;20184;-59
2022/01/21 01:35:13;;;;;;;6.53;3.23;;;;;;;-0.24;100.00;100122.75;4999126;28;20303;-60
2022/01/21 01:40:39;;;;;;;10.43;3.33;;;;;;;-0.25;100.00;100121.91;5087340;28;20539;-59
2022/01/21 01:49:23;;;;;;;9.13;2.93;;;;;;;-0.22;100.00;100120.97;5068883;28;20273;-59
2022/01/21 01:51:30;;;;;;;10.33;3.23;;;;;;;-0.29;100.00;100117.75;5075585;28;20189;-59
2022/01/21 01:54:00;;;;;;;9.33;3.17;;;;;;;-0.36;100.00;100111.94;5076630;28;20216;-59
2022/01/21 01:56:33;;;;;;;10.60;2.70;;;;;;;-0.35;100.00;100113.63;5077195;28;20198;-59
2022/01/21 01:58:59;;;;;;;9.93;3.97;;;;;;;-0.32;100.00;100118.69;5073002;28;20203;-59
2022/01/21 02:01:27;;;;;;;12.13;3.23;;;;;;;-0.36;100.00;100117.09;5071927;28;20751;-59
2022/01/21 02:03:53;;;;;;;12.63;3.63;;;;;;;-0.34;100.00;100107.63;5066194;28;20275;-59
2022/01/21 02:06:21;;;;;;;10.70;3.00;;;;;;;-0.35;100.00;100112.81;5066488;28;20186;-59
2022/01/21 02:08:48;;;;;;;6.63;2.80;;;;;;;-0.37;100.00;100107.72;5064999;28;20623;-59
2022/01/21 02:11:17;;;;;;;8.27;3.07;;;;;;;-0.42;100.00;100106.16;5065204;28;20208;-59
2022/01/21 02:13:49;;;;;;;14.60;3.47;;;;;;;-0.48;100.00;100095.19;5065983;28;20222;-60
2022/01/21 02:16:32;;;;;;;10.27;3.33;;;;;;;-0.45;100.00;100099.38;5065100;28;20229;-59
2022/01/21 02:21:47;;;;;;;9.63;3.33;;;;;;;-0.49;100.00;100097.78;5064948;28;20406;-59
2022/01/21 02:24:19;;;;;;;9.07;3.30;;;;;;;-0.52;100.00;100091.03;5064504;28;20206;-59
2022/01/21 02:26:48;;;;;;;6.43;2.80;;;;;;;-0.50;100.00;100085.84;5064852;28;20194;-59
2022/01/21 02:29:26;;;;;;;11.03;3.40;;;;;;;-0.47;100.00;100096.03;5065361;28;20200;-59
2022/01/21 02:31:55;;;;;;;13.73;3.67;;;;;;;-0.40;100.00;100101.84;5065114;28;20197;-59
2022/01/21 02:34:22;;;;;;;17.37;3.63;;;;;;;-0.39;100.00;100103.53;5064902;28;20324;-59
2022/01/21 02:36:51;;;;;;;12.37;3.43;;;;;;;-0.31;100.00;100094.69;5065253;28;20293;-59
2022/01/21 02:39:18;;;;;;;9.20;3.27;;;;;;;-0.36;100.00;100101.69;5065158;28;20215;-59
2022/01/21 02:41:45;;;;;;;9.03;3.27;;;;;;;-0.34;100.00;100101.66;5064820;28;20667;-59
2022/01/21 02:44:15;;;;;;;7.87;3.43;;;;;;;-0.35;100.00;100098.25;5064552;28;20222;-59
2022/01/21 02:46:46;;;;;;;13.13;3.30;;;;;;;-0.31;100.00;100104.97;5065155;28;20532;-60
2022/01/21 02:49:16;;;;;;;8.30;3.40;;;;;;;-0.28;100.00;100110.88;5065052;28;20277;-60
2022/01/21 02:51:43;;;;;;;9.87;3.67;;;;;;;-0.28;100.00;100111.75;5052108;28;20738;-60
2022/01/21 02:54:11;;;;;;;13.30;3.10;;;;;;;-0.26;100.00;100106.56;5050852;28;20220;-59
2022/01/21 02:56:39;;;;;;;12.40;3.23;;;;;;;-0.28;100.00;100116.88;5052785;28;20193;-59
2022/01/21 02:59:08;;;;;;;13.77;3.53;;;;;;;-0.27;100.00;100113.44;5051746;28;20223;-60
2022/01/21 03:01:36;;;;;;;10.77;3.50;;;;;;;-0.24;100.00;100121.03;5051445;28;20670;-59
2022/01/21 03:04:04;;;;;;;9.43;3.20;;;;;;;-0.24;100.00;100127.88;5051109;28;20225;-60
2022/01/21 03:06:31;;;;;;;11.83;3.30;;;;;;;-0.21;100.00;100131.22;5051461;28;20193;-60
2022/01/21 03:09:00;;;;;;;12.13;3.60;;;;;;;-0.23;100.00;100125.28;5051229;28;20218;-60
2022/01/21 03:11:29;;;;;;;7.70;3.03;;;;;;;-0.21;100.00;100125.22;5052232;28;20198;-60
2022/01/21 03:13:57;;;;;;;8.77;3.33;;;;;;;-0.22;100.00;100131.25;5052233;28;20240;-59
2022/01/21 03:16:24;;;;;;;10.07;3.70;;;;;;;-0.23;100.00;100132.97;5051170;28;20280;-59
2022/01/21 03:18:51;;;;;;;10.70;3.23;;;;;;;-0.21;100.00;100131.22;5051186;28;20209;-61
2022/01/21 03:21:19;;;;;;;8.33;3.20;;;;;;;-0.19;100.00;100124.31;5051103;28;20197;-60
2022/01/21 03:23:47;;;;;;;9.93;3.17;;;;;;;-0.17;100.00;100125.09;5050327;28;20225;-59
2022/01/21 03:26:17;;;;;;;8.63;3.03;;;;;;;-0.16;100.00;100121.66;5050767;28;20597;-60
2022/01/21 03:28:53;;;;;;;10.97;3.20;;;;;;;-0.14;100.00;100131.03;5051324;28;20201;-59
2022/01/21 03:31:21;;;;;;;6.73;2.97;;;;;;;-0.16;100.00;100131.91;5050688;28;20205;-60
2022/01/21 03:33:49;;;;;;;10.67;3.37;;;;;;;-0.17;100.00;100129.38;5050756;28;20674;-60
2022/01/21 03:36:16;;;;;;;9.00;3.10;;;;;;;-0.10;100.00;100128.31;5050825;28;20191;-60
2022/01/21 03:38:43;;;;;;;11.47;2.93;;;;;;;-0.11;100.00;100125.81;5050593;28;20218;-60
2022/01/21 03:41:10;;;;;;;9.10;2.90;;;;;;;-0.11;100.00;100125.81;5051723;28;20203;-59
2022/01/21 03:43:38;;;;;;;12.73;3.20;;;;;;;-0.12;100.00;100136.97;5039589;28;20222;-60
2022/01/21 03:46:08;;;;;;;10.47;2.80;;;;;;;-0.15;100.00;100143.00;5045783;28;20203;-60
2022/01/21 03:48:36;;;;;;;7.47;2.97;;;;;;;-0.12;100.00;100139.53;5037931;28;20632;-60
2022/01/21 03:51:04;;;;;;;10.10;2.80;;;;;;;-0.14;100.00;100133.59;5030359;28;20193;-60
2022/01/21 03:53:31;;;;;;;7.63;3.20;;;;;;;-0.15;100.00;100132.75;5030587;28;20219;-60
2022/01/21 03:55:58;;;;;;;6.27;2.93;;;;;;;-0.16;100.00;100142.19;5030774;28;20206;-60
2022/01/21 03:58:26;;;;;;;14.13;3.27;;;;;;;-0.13;100.00;100137.84;5030893;28;20198;-60
2022/01/21 04:00:55;;;;;;;9.50;3.07;;;;;;;-0.13;100.00;100135.28;5030417;28;20271;-60
2022/01/21 04:03:26;;;;;;;8.17;3.13;;;;;;;-0.13;100.00;100119.88;5029424;28;20698;-59
2022/01/21 04:05:54;;;;;;;13.57;3.23;;;;;;;-0.14;100.00;100120.78;5030297;28;20338;-60
2022/01/21 04:08:22;;;;;;;8.60;2.97;;;;;;;-0.13;100.00;100123.28;5030659;28;20327;-60
2022/01/21 04:10:58;;;;;;;8.03;3.20;;;;;;;-0.10;100.00;100135.19;5030287;28;20346;-60
2022/01/21 04:13:26;;;;;;;10.17;3.50;;;;;;;-0.10;100.00;100135.19;5030482;28;20212;-59
2022/01/21 04:15:58;;;;;;;11.23;3.67;;;;;;;-0.26;100.00;100132.22;5030387;28;20198;-59
2022/01/21 04:18:27;;;;;;;10.73;3.40;;;;;;;-0.43;100.00;100133.53;5030473;28;20192;-59
2022/01/21 04:20:57;;;;;;;10.43;3.33;;;;;;;-0.50;100.00;100135.44;5029949;28;20236;-60
2022/01/21 04:23:25;;;;;;;8.33;3.13;;;;;;;-0.58;100.00;100136.56;5030005;28;20210;-60
2022/01/21 04:25:53;;;;;;;8.30;3.33;;;;;;;-0.61;100.00;100142.59;5030051;28;20588;-59
2022/01/21 04:28:21;;;;;;;12.63;3.60;;;;;;;-0.75;100.00;100138.69;5031284;28;20675;-59
2022/01/21 04:30:49;;;;;;;11.00;3.47;;;;;;;-0.72;100.00;100140.34;5029861;28;20188;-59
2022/01/21 04:33:18;;;;;;;12.47;3.30;;;;;;;-0.71;100.00;100136.03;5029802;28;20487;-60
2022/01/21 04:35:57;;;;;;;10.50;3.13;;;;;;;-0.71;100.00;100147.16;5030092;28;20218;-61
2022/01/21 04:38:25;;;;;;;10.30;4.23;;;;;;;-0.68;100.00;100151.34;5030872;28;20198;-59
2022/01/21 04:40:59;;;;;;;11.77;3.47;;;;;;;-0.71;100.00;100152.28;5029749;28;20284;-59
2022/01/21 04:48:57;;;;;;;8.17;3.40;;;;;;;-0.58;100.00;100157.06;5029958;28;20663;-61
2022/01/21 04:51:28;;;;;;;11.83;3.30;;;;;;;-0.61;100.00;100160.56;5028986;28;20198;-60
2022/01/21 04:53:59;;;;;;;15.17;2.90;;;;;;;-0.59;100.00;100163.91;5028577;28;20257;-61
2022/01/21 04:56:30;;;;;;;9.53;3.57;;;;;;;-0.56;100.00;100158.69;5029317;28;20214;-59
2022/01/21 04:58:57;;;;;;;11.83;2.90;;;;;;;-0.56;100.00;100163.84;5029594;28;20206;-61
2022/01/21 05:01:29;;;;;;;11.10;3.10;;;;;;;-0.54;100.00;100174.06;5028814;28;20219;-60
2022/01/21 05:03:56;;;;;;;12.33;3.47;;;;;;;-0.60;100.00;100162.22;5028675;28;20211;-60
2022/01/21 05:06:25;;;;;;;9.00;2.87;;;;;;;-0.54;100.00;100162.06;5029340;28;20219;-60
2022/01/21 05:08:54;;;;;;;9.90;3.20;;;;;;;-0.50;100.00;100165.38;5029583;28;20218;-60
2022/01/21 05:11:22;;;;;;;8.57;2.77;;;;;;;-0.50;100.00;100173.94;5030465;28;20271;-60
2022/01/21 05:13:56;;;;;;;10.53;3.17;;;;;;;-0.49;100.00;100175.59;5028906;28;20216;-60
2022/01/21 05:16:33;;;;;;;7.47;3.17;;;;;;;-0.47;100.00;100172.97;5030615;28;20184;-60
2022/01/21 05:19:05;;;;;;;8.60;3.23;;;;;;;-0.51;100.00;100177.38;5029607;28;20191;-60
2022/01/21 05:21:52;;;;;;;12.17;3.20;;;;;;;-0.50;100.00;100173.06;5028996;28;20204;-60
2022/01/21 05:24:27;;;;;;;11.13;3.63;;;;;;;-0.50;100.00;100173.06;5028781;28;20701;-60
2022/01/21 05:26:58;;;;;;;12.73;3.20;;;;;;;-0.53;100.00;100175.75;5028999;28;20247;-60
2022/01/21 05:29:47;;;;;;;10.17;3.40;;;;;;;-0.56;100.00;100176.66;5029428;28;20241;-60
2022/01/21 05:32:22;;;;;;;10.83;2.70;;;;;;;-0.54;100.00;100181.75;5028775;28;20667;-60
2022/01/21 05:35:16;;;;;;;9.90;3.40;;;;;;;-0.57;100.00;100182.66;5021212;28;20700;-60
2022/01/21 05:38:22;;;;;;;10.97;3.13;;;;;;;-0.64;100.00;100182.00;5007966;28;20200;-60
2022/01/21 05:41:27;;;;;;;8.70;2.80;;;;;;;-0.70;100.00;100184.72;4988626;28;20217;-60
2022/01/21 05:47:24;;;;;;;12.77;3.43;;;;;;;-0.83;100.00;100194.44;5030358;28;20672;-60
2022/01/21 05:50:24;;;;;;;8.97;3.27;;;;;;;-0.91;100.00;100189.53;5048672;28;20193;-60
2022/01/21 05:53:14;;;;;;;11.80;3.40;;;;;;;-0.99;100.00;100185.47;5046856;28;20198;-60
2022/01/21 05:56:09;;;;;;;14.17;4.40;;;;;;;-1.02;100.00;100196.66;5048719;28;20278;-60
2022/01/21 05:58:54;;;;;;;10.73;3.60;;;;;;;-0.96;100.00;100203.31;5050301;28;20264;-60
2022/01/21 06:01:21;;;;;;;10.70;3.40;;;;;;;-0.91;100.00;100207.47;5049616;28;20212;-60
2022/01/21 06:03:49;;;;;;;15.83;4.33;;;;;;;-0.86;100.00;100211.66;5048329;28;20238;-60
2022/01/21 06:06:15;;;;;;;8.87;3.53;;;;;;;-0.82;100.00;100214.06;5048660;28;20199;-60
2022/01/21 06:08:42;;;;;;;15.77;4.40;;;;;;;-0.79;100.00;100210.63;5050013;28;20191;-60
2022/01/21 06:11:10;;;;;;;10.53;3.87;;;;;;;-0.75;100.00;100214.78;5048586;28;20213;-60
2022/01/21 06:13:38;;;;;;;10.40;4.43;;;;;;;-0.78;100.00;100212.28;5049458;28;20218;-60
2022/01/21 06:16:05;;;;;;;13.27;4.03;;;;;;;-0.81;100.00;100214.94;5048476;28;20285;-60
2022/01/21 06:18:32;;;;;;;17.47;4.70;;;;;;;-0.86;100.00;100221.91;5049833;28;20197;-60
2022/01/21 06:20:59;;;;;;;15.63;5.20;;;;;;;-0.92;100.00;100222.88;5049377;28;20206;-60
2022/01/21 06:23:26;;;;;;;11.67;4.10;;;;;;;-1.01;100.00;100223.97;5049683;28;20218;-60
2022/01/21 06:25:53;;;;;;;12.93;4.77;;;;;;;-1.00;100.00;100230.78;5051043;28;20237;-60
2022/01/21 06:28:24;;;;;;;10.87;3.77;;;;;;;-1.20;100.00;100237.22;5053451;28;20205;-60
2022/01/21 06:30:51;;;;;;;13.73;4.17;;;;;;;-1.26;100.00;100237.34;5053506;28;20179;-60
2022/01/21 06:33:18;;;;;;;12.80;4.47;;;;;;;-1.31;100.00;100243.47;5053220;28;20199;-59
2022/01/21 06:35:44;;;;;;;8.43;3.67;;;;;;;-1.38;100.00;100241.06;5053186;28;20685;-60
2022/01/21 06:38:11;;;;;;;8.23;3.27;;;;;;;-1.44;100.00;100248.88;5053680;28;20195;-60
2022/01/21 06:40:38;;;;;;;7.53;3.83;;;;;;;-1.50;100.00;100249.00;5053087;28;20209;-60
2022/01/21 06:43:05;;;;;;;6.93;3.10;;;;;;;-1.59;100.00;100251.78;5056825;28;20194;-59
2022/01/21 06:45:33;;;;;;;10.03;3.53;;;;;;;-1.56;100.00;100251.69;5032782;28;20211;-59
2022/01/21 06:48:02;;;;;;;15.63;3.70;;;;;;;-1.57;100.00;100250.00;5033034;28;20203;-60
2022/01/21 06:50:30;;;;;;;11.43;3.60;;;;;;;-1.59;100.00;100256.88;5065441;28;20232;-60
2022/01/21 06:52:57;;;;;;;9.13;3.30;;;;;;;-1.58;100.00;100253.44;5063881;28;20645;-59
2022/01/21 06:55:24;;;;;;;9.47;3.10;;;;;;;-1.59;100.00;100249.22;5062462;28;20187;-59
2022/01/21 06:57:51;;;;;;;11.40;3.00;;;;;;;-1.60;100.00;100253.50;5062308;28;20186;-59
2022/01/21 07:00:19;;;;;;;8.67;2.93;;;;;;;-1.67;100.00;100257.91;5063513;28;20201;-59
2022/01/21 07:02:48;;;;;;;14.20;3.20;;;;;;;-1.74;100.00;100256.34;5062456;28;20194;-59
2022/01/21 07:05:15;;;;;;;9.95;3.90;;;;;;;-1.83;100.00;100251.41;5052801;28;20435;-59
2022/01/21 07:07:42;;;;;;;10.13;3.20;;;;;;;-1.90;100.00;100266.06;5053201;28;20187;-59
2022/01/21 07:10:11;;;;;;;11.80;3.07;;;;;;;-1.97;100.00;100260.19;5055648;28;20178;-59
2022/01/21 07:12:39;;;;;;;13.70;3.23;;;;;;;-2.00;100.00;100265.38;5063145;28;20197;-58
2022/01/21 07:15:08;;;;;;;13.10;3.30;;;;;;;-2.03;100.00;100268.00;5061024;28;20213;-60
2022/01/21 07:17:35;;;;;;;7.57;3.57;;;;;;;-1.99;100.00;100269.63;5062920;28;20589;-58
2022/01/21 07:20:05;;;;;;;12.90;4.03;;;;;;;-1.99;100.00;100273.91;5060627;28;20186;-60
2022/01/21 07:22:32;;;;;;;12.90;6.93;;;;;;;-2.01;100.00;100273.94;5053166;28;20301;-58
2022/01/21 07:24:59;;;;;;;15.47;8.30;;;;;;;-1.98;100.00;100276.44;5047248;28;20613;-60
2022/01/21 07:27:26;;;;;;;16.07;5.80;;;;;;;-1.97;100.00;100272.16;5049166;28;20217;-60
2022/01/21 07:29:53;;;;;;;15.53;4.87;;;;;;;-1.86;100.00;100279.63;5052370;28;20190;-61
2022/01/21 07:32:20;;;;;;;14.83;5.83;;;;;;;-1.84;100.00;100278.75;5051946;28;20689;-59
2022/01/21 07:34:47;;;;;;;15.47;4.93;;;;;;;-1.78;100.00;100277.75;5052087;28;20228;-60
2022/01/21 07:37:15;;;;;;;14.00;3.43;;;;;;;-1.70;100.00;100281.00;5051227;28;20602;-62
2022/01/21 07:39:42;;;;;;;7.77;3.07;;;;;;;-1.63;100.00;100292.81;5052801;28;20202;-60
2022/01/21 07:42:09;;;;;;;11.37;3.57;;;;;;;-1.55;100.00;100294.38;5052333;28;20214;-61
2022/01/21 07:44:36;;;;;;;14.43;4.10;;;;;;;-1.47;100.00;100287.34;5067842;22;20230;-57
2022/01/21 07:47:04;;;;;;;12.93;5.15;;;;;;;-1.39;100.00;100289.75;5049569;28;20433;-53
2022/01/21 07:49:32;;;;;;;11.77;4.40;;;;;;;-1.32;100.00;100291.28;5057710;28;20202;-55
2022/01/21 07:51:59;;;;;;;11.87;4.20;;;;;;;-1.23;100.00;100285.97;5065926;28;20756;-55
2022/01/21 07:54:27;;;;;;;12.10;4.43;;;;;;;-1.16;100.00;100280.69;5061058;28;20654;-56
2022/01/21 07:56:54;;;;;;;18.07;5.77;;;;;;;-1.04;100.00;100282.97;5061535;28;20277;-55
2022/01/21 07:59:20;;;;;;;12.37;4.10;;;;;;;-0.94;100.00;100286.16;5054099;28;20194;-55
2022/01/21 08:01:47;;;;;;;19.43;4.47;;;;;;;-0.85;100.00;100292.81;5071296;28;20285;-55
2022/01/21 08:04:14;;;;;;;11.53;4.10;;;;;;;-0.79;100.00;100290.09;5071807;28;20190;-56
2022/01/21 08:06:41;;;;;;;15.27;3.53;;;;;;;-0.71;100.00;100295.88;5072006;28;20200;-56
2022/01/21 08:09:08;;;;;;;10.87;3.60;;;;;;;-0.66;100.00;100291.47;5072289;28;20250;-56
2022/01/21 08:11:36;;;;;;;10.03;3.70;;;;;;;-0.60;100.00;100283.63;5071598;28;20185;-56
2022/01/21 08:14:04;;;;;;;13.20;4.80;;;;;;;-0.50;100.00;100281.66;5053489;28;20200;-55
2022/01/21 08:16:32;;;;;;;12.60;4.20;;;;;;;-0.48;100.00;100277.34;5071638;28;20210;-56
2022/01/21 08:18:59;;;;;;;8.47;3.67;;;;;;;-0.42;100.00;100286.59;5071925;28;20603;-56
2022/01/21 08:21:26;;;;;;;15.77;5.77;;;;;;;-0.38;100.00;100292.50;5071449;28;20254;-56
2022/01/21 08:23:55;;;;;;;9.23;4.40;;;;;;;-0.26;100.00;100296.47;5071414;28;20190;-56
2022/01/21 08:26:24;;;;;;;10.90;5.33;;;;;;;-0.17;100.00;100294.50;5071452;28;20688;-55
2022/01/21 08:28:53;;;;;;;10.80;4.87;;;;;;;-0.08;100.00;100282.31;5071626;28;20715;-56
2022/01/21 08:31:21;;;;;;;13.43;5.80;;;;;;;0.01;100.00;100282.03;5071244;28;20182;-56
2022/01/21 08:33:48;;;;;;;18.63;6.43;;;;;;;0.10;99.87;100286.06;5071268;28;20225;-56
2022/01/21 08:36:15;;;;;;;18.50;7.07;;;;;;;0.09;98.46;100292.09;5053479;28;20230;-56
2022/01/21 08:38:43;;;;;;;17.63;6.17;;;;;;;0.21;98.25;100291.75;5071540;28;20190;-55
2022/01/21 08:41:09;;;;;;;13.30;6.00;;;;;;;0.22;97.46;100296.00;5071053;28;20248;-56
2022/01/21 08:43:36;;;;;;;13.53;6.10;;;;;;;0.35;97.37;100300.78;5070967;28;20203;-56
2022/01/21 08:46:05;;;;;;;15.03;6.90;;;;;;;0.45;97.01;100309.94;5071339;28;20329;-56
2022/01/21 08:48:31;;;;;;;55.10;23.93;;;;;;;1.20;100.00;100313.63;5064146;28;20189;-48
2022/01/21 08:51:00;;;;;;;21.03;9.37;;;;;;;1.31;100.00;100316.69;5065834;28;20655;-47
2022/01/21 08:53:41;;;;;;;18.73;9.10;;;;;;;1.26;100.00;100310.88;5053866;28;20191;-48
2022/01/21 08:56:10;;;;;;;17.23;7.90;;;;;;;1.55;100.00;100313.38;5056063;28;20288;-48
2022/01/21 08:58:38;;;;;;;16.80;6.67;;;;;;;1.83;99.17;100326.16;5062046;28;20187;-47
2022/01/21 09:01:08;;;;;;;11.47;6.30;;;;;;;2.00;92.82;100333.28;5070504;28;20226;-47
2022/01/21 09:03:35;;;;;;;12.70;6.10;;;;;;;2.03;88.87;100338.34;5070403;28;20591;-58
2022/01/21 09:06:02;;;;;;;11.73;5.13;;;;;;;1.87;87.47;100337.19;5070416;28;20242;-55
2022/01/21 09:08:30;;;;;;;11.80;4.70;;;;;;;1.84;87.87;100333.00;5070584;28;20613;-54
2022/01/21 09:10:59;;;;;;;15.40;6.23;;;;;;;1.70;88.46;100323.16;5070500;28;20202;-55
2022/01/21 09:13:29;;;;;;;15.57;6.07;;;;;;;1.68;88.49;100329.25;5070538;28;20178;-55
2022/01/21 09:15:58;;;;;;;15.63;5.83;;;;;;;1.65;89.71;100319.06;5070345;28;20256;-55
2022/01/21 09:18:33;;;;;;;13.97;5.70;;;;;;;1.65;89.40;100330.19;5070658;28;20187;-55
2022/01/21 09:21:00;;;;;;;16.60;6.13;;;;;;;1.60;88.68;100332.91;5070536;28;20293;-55
2022/01/21 09:23:27;;;;;;;22.13;6.30;;;;;;;1.64;88.86;100332.81;5070828;28;20182;-55
2022/01/21 09:25:54;;;;;;;21.13;6.00;;;;;;;1.67;88.19;100340.44;5070103;28;20203;-55
2022/01/21 09:28:21;;;;;;;14.30;5.17;;;;;;;1.46;86.73;100332.53;5070532;28;20193;-55
2022/01/21 09:30:48;;;;;;;14.57;5.40;;;;;;;1.50;85.95;100343.59;5070302;28;20194;-55
2022/01/21 09:33:15;;;;;;;12.97;6.53;;;;;;;1.28;84.36;100347.66;5070321;28;20183;-55
2022/01/21 09:35:44;;;;;;;19.97;7.00;;;;;;;1.15;85.67;100347.22;5069894;28;20691;-54
2022/01/21 09:38:10;;;;;;;16.67;7.00;;;;;;;1.08;87.70;100342.31;5070468;28;20187;-53
2022/01/21 09:40:51;;;;;;;19.03;7.20;;;;;;;0.95;89.51;100347.84;5069973;28;20550;-54
2022/01/21 09:43:19;;;;;;;12.23;6.63;;;;;;;1.02;90.15;100356.22;5070817;28;20179;-55
2022/01/21 09:45:51;;;;;;;20.37;7.20;;;;;;;1.15;90.58;100354.94;5069493;28;20214;-55
2022/01/21 09:48:23;;;;;;;27.50;11.73;;;;;;;1.34;90.07;100351.78;5070614;28;20272;-56
2022/01/21 09:50:54;;;;;;;19.60;8.10;;;;;;;1.54;89.02;100348.56;5052044;28;20281;-56
2022/01/21 09:53:26;;;;;;;31.10;12.63;;;;;;;1.75;87.79;100338.44;5062274;28;20286;-55
2022/01/21 09:55:53;;;;;;;30.53;16.23;;;;;;;1.91;86.36;100346.47;5049554;28;20742;-54
2022/01/21 09:58:20;;;;;;;24.07;10.50;;;;;;;2.06;84.97;100347.69;5050116;28;20197;-55
2022/01/21 10:00:47;;;;;;;20.40;9.40;;;;;;;2.18;83.85;100347.25;5051101;28;20182;-55
2022/01/21 10:03:14;;;;;;;20.10;8.77;;;;;;;2.14;83.63;100350.81;5054294;28;20198;-55
2022/01/21 10:05:44;;;;;;;22.80;8.73;;;;;;;2.12;83.52;100362.91;5053606;28;20552;-55
2022/01/21 10:08:14;;;;;;;23.60;9.90;;;;;;;2.26;83.40;100357.28;5054208;28;20185;-55
2022/01/21 10:10:42;;;;;;;24.90;10.03;;;;;;;2.27;83.80;100360.69;5053581;28;20195;-56
2022/01/21 10:13:09;;;;;;;23.90;10.03;;;;;;;2.33;83.07;100345.88;5054042;28;20643;-55
2022/01/21 10:15:37;;;;;;;22.20;8.77;;;;;;;2.24;82.77;100346.19;5053561;28;20438;-56
2022/01/21 10:18:06;;;;;;;19.37;7.93;;;;;;;2.39;81.29;100356.84;5053431;28;20728;-56
2022/01/21 10:20:34;;;;;;;17.50;7.40;;;;;;;2.36;81.75;100361.22;5053739;28;20195;-54
2022/01/21 10:23:03;;;;;;;18.60;7.30;;;;;;;2.17;80.63;100360.19;5035694;28;20223;-55
2022/01/21 10:25:33;;;;;;;21.30;6.97;;;;;;;2.09;81.84;100363.06;5053501;28;20211;-57
2022/01/21 10:28:16;;;;;;;19.80;6.87;;;;;;;1.85;81.65;100375.88;5053920;28;20266;-56
2022/01/21 10:30:45;;;;;;;12.80;6.40;;;;;;;1.77;84.14;100372.72;5053392;28;20270;-55
2022/01/21 10:33:23;;;;;;;13.90;6.07;;;;;;;1.94;84.33;100368.72;5053276;28;20191;-56
2022/01/21 10:35:51;;;;;;;24.83;12.13;;;;;;;1.95;84.28;100365.25;5035084;28;20589;-58
2022/01/21 10:38:22;;;;;;;23.60;7.93;;;;;;;2.04;84.21;100370.09;5053589;28;20738;-55
2022/01/21 10:40:51;;;;;;;20.57;9.57;;;;;;;2.00;82.41;100364.19;5063427;28;20190;-56
2022/01/21 10:43:19;;;;;;;32.57;12.07;;;;;;;2.21;81.43;100374.66;5043847;28;20214;-55
2022/01/21 10:45:54;;;;;;;18.97;7.27;;;;;;;2.23;81.65;100372.84;5062679;28;20246;-56
2022/01/21 10:48:21;;;;;;;23.93;6.20;;;;;;;2.39;81.31;100368.00;5061822;28;20194;-55
2022/01/21 10:51:04;;;;;;;19.53;6.20;;;;;;;2.33;80.07;100363.06;5062702;28;20179;-55
2022/01/21 10:53:32;;;;;;;21.10;6.60;;;;;;;2.50;79.87;100370.19;5063086;28;20206;-56
2022/01/21 10:56:11;;;;;;;15.80;5.87;;;;;;;2.48;79.50;100367.66;5039715;28;20219;-56
2022/01/21 10:58:40;;;;;;;20.00;5.67;;;;;;;2.47;80.48;100353.09;5063981;28;20186;-55
2022/01/21 11:01:12;;;;;;;17.77;9.57;;;;;;;2.48;79.69;100364.25;5055444;28;20196;-55
2022/01/21 11:03:56;;;;;;;18.07;5.90;;;;;;;2.64;79.75;100360.22;5052649;28;20267;-48
2022/01/21 11:06:25;;;;;;;18.43;6.50;;;;;;;2.55;80.12;100354.53;5035002;28;20223;-54
2022/01/21 11:09:16;;;;;;;22.23;7.70;;;;;;;2.47;80.04;100347.94;5052924;28;20269;-52
2022/01/21 11:11:44;;;;;;;18.30;7.53;;;;;;;2.34;79.54;100352.69;5052352;28;20187;-51
2022/01/21 11:14:14;;;;;;;16.10;5.90;;;;;;;2.35;78.97;100353.53;5052417;28;20563;-52
2022/01/21 11:16:44;;;;;;;17.80;5.43;;;;;;;2.32;78.22;100351.91;5052902;28;20203;-52
2022/01/21 11:19:12;;;;;;;13.27;5.30;;;;;;;2.27;79.37;100351.25;5035225;28;20363;-52
2022/01/21 11:21:45;;;;;;;19.47;5.83;;;;;;;2.42;79.58;100354.16;5052281;28;20203;-55
2022/01/21 11:24:13;;;;;;;28.43;7.13;;;;;;;4.49;100.00;100355.25;5064838;28;20265;-48
2022/01/21 11:26:40;;;;;;;15.57;5.50;;;;;;;3.36;89.78;100347.97;5072488;28;20210;-47
2022/01/21 11:29:10;;;;;;;16.50;5.17;;;;;;;3.17;90.23;100354.78;5072547;28;20682;-54
2022/01/21 11:31:37;;;;;;;14.57;5.47;;;;;;;2.85;83.18;100347.38;5072172;28;20194;-54
2022/01/21 11:34:04;;;;;;;14.73;5.70;;;;;;;2.88;82.09;100344.69;5053981;28;20662;-53
2022/01/21 11:36:30;;;;;;;12.40;5.13;;;;;;;2.84;80.60;100335.38;5072289;28;20202;-54
2022/01/21 11:38:58;;;;;;;15.23;5.80;;;;;;;2.92;78.82;100328.19;5072531;28;20190;-53
2022/01/21 11:41:26;;;;;;;15.50;5.90;;;;;;;3.09;78.53;100330.13;5072004;28;20179;-52
2022/01/21 11:43:59;;;;;;;21.23;5.30;;;;;;;3.18;76.06;100328.09;5053929;28;20187;-56
2022/01/21 11:46:46;;;;;;;14.83;5.10;;;;;;;3.21;78.46;100331.38;5072383;28;20669;-52
2022/01/21 11:49:17;;;;;;;22.70;7.90;;;;;;;3.30;78.14;100327.56;5072349;28;20266;-53
2022/01/21 11:51:44;;;;;;;11.60;5.87;;;;;;;3.45;78.27;100314.94;5053999;28;20195;-52
2022/01/21 11:54:13;;;;;;;37.67;15.13;;;;;;;3.20;77.70;100309.03;5071994;28;20190;-53
2022/01/21 11:56:43;;;;;;;28.30;12.63;;;;;;;3.28;78.87;100307.91;5071965;28;20248;-53
2022/01/21 11:59:16;;;;;;;35.37;15.60;;;;;;;3.28;77.51;100308.72;5071943;28;20674;-53
2022/01/21 12:01:49;;;;;;;19.60;6.30;;;;;;;3.31;76.21;100307.78;5071810;28;20223;-52
2022/01/21 12:04:39;;;;;;;20.33;7.70;;;;;;;3.23;77.78;100314.09;5071668;28;20210;-54
2022/01/21 12:07:48;;;;;;;13.27;4.30;;;;;;;3.22;76.82;100314.13;5071765;28;20194;-51
2022/01/21 12:10:18;;;;;;;9.70;5.20;;;;;;;3.01;74.96;100308.94;5071704;28;20517;-52